EDDK

Cologne Bonn Airport

Cologne, Germany
METAR EDDK 190320Z 24011KT 9999 FEW010 BKN014 BKN030 03/02 Q1005 TEMPO SHRA
Observed Flight Rules
Jan-19 @ 03:20 UTC (21 minutes ago) Marginal Visual Flight Rules
Wind Visibility Clouds
240° at 11 knots 10,000+ meters
  • Few at 1,000' AGL
  • Broken at 1,400' AGL
  • Broken at 3,000' AGL
Temperatures Readings
Current 3°C / 37°F
Dewpoint 2°C / 36°F
Humidity 93%
Altimeter 29.68" Hg
Pressure 1005 hPa
Elevation 99
METAR EDDK 190320Z 24011KT 9999 FEW010 BKN014 BKN030 03/02 Q1005 TEMPO SHRA
Observed Flight Rules
Jan-19 @ 03:20 UTC
(21 minutes ago)
MVFR
Wind Visibility
240° at 11 knots 10,000+ meters
Clouds
  • Few at 1,000' AGL
  • Broken at 1,400' AGL
  • Broken at 3,000' AGL
Temperature Dewpoint
3°C / 37°F 2°C / 36°F
Humidity Altimeter Pressure
93% 29.68" Hg 1005 hPa